Time;durP1;ratioP1;P1;durP2;ratioP2;P2;SDS_P1;SDS_P2;PMS_P1;PMS_P2;Temp;Humidity;BMP_temperature;BMP_pressure;BME280_temperature;BME280_humidity;BME280_pressure;Samples;Min_cycle;Max_cycle;Signal;HPM_P1;HPM_P2
2023/12/24 00:00:47;;;;;;;;;9.00;9.00;;;;;2.14;100.00;98648.91;6280704;20;2734683;-45
2023/12/24 00:03:15;;;;;;;;;16.00;9.00;;;;;2.15;100.00;98650.63;6314531;20;2767956;-45
2023/12/24 00:05:44;;;;;;;;;16.00;13.33;;;;;2.25;100.00;98654.59;6278393;20;3547344;-48
2023/12/24 00:08:13;;;;;;;;;20.00;20.00;;;;;2.11;100.00;98655.22;6313595;20;3564892;-47
2023/12/24 00:10:44;;;;;;;;;21.00;16.71;;;;;2.03;100.00;98652.03;6347331;20;1821251;-46
2023/12/24 00:13:13;;;;;;;;;22.67;15.33;;;;;2.10;100.00;98652.63;6311878;20;3559681;-47
2023/12/24 00:15:41;;;;;;;;;17.50;13.50;;;;;2.21;100.00;98663.59;6310033;20;2808660;-47
2023/12/24 00:18:08;;;;;;;;;14.00;12.00;;;;;2.31;100.00;98662.25;6277499;20;2788822;-45
2023/12/24 00:20:40;;;;;;;;;20.00;14.29;;;;;2.06;100.00;98662.50;6320872;20;1820104;-49
2023/12/24 00:23:12;;;;;;;;;16.43;14.86;;;;;1.96;100.00;98662.03;6351506;20;1808706;-49
2023/12/24 00:25:43;;;;;;;;;27.50;21.00;;;;;2.11;100.00;98667.59;6308221;20;2823222;-47
2023/12/24 00:28:11;;;;;;;;;24.50;21.00;;;;;2.18;100.00;98669.03;6278120;20;2500758;-46
2023/12/24 00:30:39;;;;;;;;;20.33;17.00;;;;;2.05;100.00;98671.34;6278659;20;3562753;-49
2023/12/24 00:33:08;;;;;;;;;17.00;17.00;;;;;2.06;100.00;98682.81;6310595;20;3557651;-48
2023/12/24 00:35:36;;;;;;;;;19.50;18.50;;;;;1.98;100.00;98689.28;6310509;20;2828479;-46
2023/12/24 00:38:04;;;;;;;;;23.00;20.00;;;;;1.95;100.00;98686.78;6279901;20;2817040;-48
2023/12/24 00:40:32;;;;;;;;;19.50;16.00;;;;;1.92;100.00;98691.31;6282863;20;2833757;-48
2023/12/24 00:43:01;;;;;;;;;18.00;16.00;;;;;2.03;100.00;98694.41;6279250;20;3561878;-47
2023/12/24 00:45:30;;;;;;;;;19.33;19.00;;;;;2.01;100.00;98700.69;6309492;20;3539989;-46
2023/12/24 00:47:58;;;;;;;;;14.00;11.00;;;;;1.98;100.00;98694.59;6279413;20;2787812;-49
2023/12/24 00:50:26;;;;;;;;;29.00;23.00;;;;;1.94;100.00;98708.88;6279731;20;2848244;-48
2023/12/24 00:52:55;;;;;;;;;19.00;17.00;;;;;2.08;100.00;98702.13;6278281;20;3554400;-47
2023/12/24 00:55:23;;;;;;;;;15.50;13.00;;;;;1.97;100.00;98706.13;6308653;20;2788940;-46
2023/12/24 00:57:52;;;;;;;;;19.33;17.33;;;;;2.05;100.00;98720.78;6281547;20;3555488;-46
2023/12/24 01:00:20;;;;;;;;;19.00;16.67;;;;;2.01;100.00;98730.66;6310380;20;3552313;-47
2023/12/24 01:02:51;;;;;;;;;21.00;16.00;;;;;2.06;100.00;98735.75;6311738;20;3545203;-48
2023/12/24 01:05:19;;;;;;;;;16.00;12.00;;;;;1.86;100.00;98740.09;6315560;20;2798187;-45
2023/12/24 01:07:47;;;;;;;;;13.00;12.00;;;;;2.02;100.00;98747.41;6287882;20;2779442;-47
2023/12/24 01:10:16;;;;;;;;;13.00;10.75;;;;;2.05;100.00;98742.81;6302126;20;1831627;-46
2023/12/24 01:12:44;;;;;;;;;11.00;10.00;;;;;2.09;100.00;98743.56;6316871;20;2777352;-47
2023/12/24 01:15:13;;;;;;;;;8.25;7.50;;;;;1.87;100.00;98744.47;6297917;20;1818100;-47
2023/12/24 01:17:41;;;;;;;;;10.00;8.50;;;;;1.92;100.00;98745.16;6334956;20;1831588;-49
2023/12/24 01:20:16;;;;;;;;;12.60;9.40;;;;;1.89;100.00;98749.69;6341174;20;2748320;-46
2023/12/24 01:22:44;;;;;;;;;12.00;10.50;;;;;1.79;100.00;98745.69;6317187;20;2766976;-47
2023/12/24 01:25:15;;;;;;;;;8.83;8.83;;;;;1.87;100.00;98752.41;6325874;20;1806003;-48
2023/12/24 01:27:43;;;;;;;;;5.67;5.67;;;;;1.97;100.00;98764.34;6287164;20;3459693;-45
2023/12/24 01:30:11;;;;;;;;;8.00;8.00;;;;;1.80;100.00;98756.22;6314757;20;2749258;-46
2023/12/24 01:32:39;;;;;;;;;6.67;5.00;;;;;1.84;100.00;98763.09;6317228;20;3461774;-50
2023/12/24 01:35:08;;;;;;;;;8.25;5.00;;;;;1.89;100.00;98771.72;6329874;20;1811814;-45
2023/12/24 01:37:37;;;;;;;;;7.25;7.25;;;;;1.76;100.00;98765.22;6335394;20;1821174;-48
2023/12/24 01:40:06;;;;;;;;;4.00;4.00;;;;;2.00;100.00;98762.47;6335834;20;1825319;-47
2023/12/24 01:42:35;;;;;;;;;5.75;5.75;;;;;1.84;100.00;98762.25;6332575;20;1821133;-49
2023/12/24 01:45:04;;;;;;;;;4.00;3.50;;;;;1.88;100.00;98759.41;6331501;20;1807607;-48
2023/12/24 01:47:33;;;;;;;;;5.75;5.75;;;;;2.03;100.00;98767.63;6333577;20;1819082;-46
2023/12/24 01:50:01;;;;;;;;;5.00;5.00;;;;;1.94;100.00;98763.59;6314154;20;3452369;-46
2023/12/24 01:52:28;;;;;;;;;4.67;1.00;;;;;2.00;100.00;98758.03;6314673;20;3437889;-49
2023/12/24 01:54:57;;;;;;;;;2.75;2.00;;;;;2.19;100.00;98758.16;6330450;20;1823268;-46
2023/12/24 01:57:27;;;;;;;;;3.33;1.00;;;;;2.10;100.00;98758.53;6318997;20;3433774;-51
2023/12/24 01:59:55;;;;;;;;;2.00;2.00;;;;;1.88;100.00;98769.16;6313934;20;3471257;-47
2023/12/24 02:02:28;;;;;;;;;1.67;1.33;;;;;2.08;100.00;98765.66;6287244;20;3448302;-47
2023/12/24 02:04:56;;;;;;;;;2.00;2.00;;;;;1.87;100.00;98772.69;6311482;20;3459619;-49
2023/12/24 02:07:26;;;;;;;;;5.33;5.33;;;;;1.91;100.00;98761.94;6318093;20;3455584;-46
2023/12/24 02:09:55;;;;;;;;;1.33;1.33;;;;;1.87;100.00;98773.59;6315854;20;3444103;-49
2023/12/24 02:12:22;;;;;;;;;2.67;2.67;;;;;2.04;100.00;98779.97;6317288;20;3464902;-47
2023/12/24 02:14:51;;;;;;;;;4.25;4.00;;;;;2.02;100.00;98766.78;6329190;20;1822151;-49
2023/12/24 02:17:20;;;;;;;;;2.00;2.00;;;;;2.08;100.00;98770.94;6315653;20;3446173;-49
2023/12/24 02:19:48;;;;;;;;;5.50;2.00;;;;;1.78;100.00;98767.81;6331309;20;1819702;-46
2023/12/24 02:22:17;;;;;;;;;5.00;4.00;;;;;2.24;100.00;98777.34;6332930;20;1814932;-46
2023/12/24 02:24:45;;;;;;;;;5.00;5.00;;;;;2.08;100.00;98771.84;6313520;20;3455635;-48
2023/12/24 02:27:25;;;;;;;;;2.50;2.00;;;;;2.03;100.00;98778.22;6333477;20;1825277;-47
2023/12/24 02:30:10;;;;;;;;;4.00;4.00;;;;;2.11;100.00;98778.78;6330218;20;1824365;-47
2023/12/24 02:32:40;;;;;;;;;7.50;5.25;;;;;2.24;100.00;98782.66;6329234;20;1821117;-48
2023/12/24 02:35:10;;;;;;;;;5.25;4.50;;;;;2.20;100.00;98787.19;6329901;20;1819067;-46
2023/12/24 02:37:38;;;;;;;;;4.00;4.00;;;;;2.16;100.00;98788.25;6314137;20;3460825;-48
2023/12/24 02:40:08;;;;;;;;;4.25;4.25;;;;;2.02;100.00;98792.41;6331961;20;1825314;-47
2023/12/24 02:42:36;;;;;;;;;5.00;5.00;;;;;2.25;100.00;98779.06;6314672;20;3463793;-47
2023/12/24 02:45:06;;;;;;;;;4.00;4.00;;;;;2.09;100.00;98778.84;6333090;20;1810737;-47
2023/12/24 02:47:34;;;;;;;;;6.00;5.00;;;;;2.13;100.00;98780.47;6316713;20;3459669;-49
2023/12/24 02:50:03;;;;;;;;;7.00;5.50;;;;;2.16;100.00;98785.63;6284106;20;2756526;-48
2023/12/24 02:52:31;;;;;;;;;4.25;3.50;;;;;2.18;100.00;98794.34;6327036;20;1818065;-47
2023/12/24 02:55:00;;;;;;;;;4.00;4.00;;;;;2.32;100.00;98791.13;6334133;20;1822207;-52
2023/12/24 02:57:29;;;;;;;;;9.00;5.25;;;;;2.01;100.00;98790.69;6330564;20;1823298;-50
2023/12/24 02:59:57;;;;;;;;;4.00;4.00;;;;;2.06;100.00;98784.28;6333927;20;1824384;-47
2023/12/24 03:02:25;;;;;;;;;5.00;5.00;;;;;2.17;100.00;98789.13;6317006;20;3454429;-49
2023/12/24 03:04:54;;;;;;;;;4.00;4.00;;;;;2.10;100.00;98774.41;6330440;20;1825343;-46
2023/12/24 03:07:23;;;;;;;;;5.00;5.00;;;;;2.15;100.00;98773.28;6331243;20;1822236;-51
2023/12/24 03:09:51;;;;;;;;;4.00;4.00;;;;;1.91;100.00;98791.06;6331746;20;1821309;-49
2023/12/24 03:12:20;;;;;;;;;4.50;4.25;;;;;2.09;100.00;98789.44;6333649;20;1825358;-47
2023/12/24 03:14:49;;;;;;;;;5.00;5.00;;;;;2.09;100.00;98792.09;6330391;20;1825427;-49
2023/12/24 03:17:17;;;;;;;;;2.00;2.00;;;;;2.25;100.00;98789.66;6331274;20;1825313;-46
2023/12/24 03:19:46;;;;;;;;;7.00;7.00;;;;;2.29;100.00;98788.63;6332676;20;1817067;-47
2023/12/24 03:22:14;;;;;;;;;7.50;6.00;;;;;2.14;100.00;98791.91;6331210;20;1821344;-46
2023/12/24 03:24:43;;;;;;;;;5.75;5.00;;;;;2.15;100.00;98793.63;6333263;20;1825449;-47
2023/12/24 03:27:11;;;;;;;;;5.00;5.00;;;;;2.29;100.00;98796.56;6313686;20;3460642;-48
2023/12/24 03:29:39;;;;;;;;;7.00;5.25;;;;;2.19;100.00;98805.81;6332008;20;1819598;-47
2023/12/24 03:32:09;;;;;;;;;9.00;5.00;;;;;2.29;100.00;98799.22;6315731;20;3459791;-47
2023/12/24 03:34:37;;;;;;;;;5.33;4.33;;;;;2.34;100.00;98799.00;6314073;20;3470073;-48
2023/12/24 03:37:04;;;;;;;;;6.33;4.33;;;;;2.30;100.00;98790.31;6282528;20;3447182;-46
2023/12/24 03:39:33;;;;;;;;;8.00;4.50;;;;;2.27;100.00;98792.25;6334142;20;1814426;-47
2023/12/24 03:42:01;;;;;;;;;6.00;5.00;;;;;2.24;100.00;98787.94;6330560;20;1813849;-46
2023/12/24 03:44:29;;;;;;;;;5.00;5.00;;;;;2.25;100.00;98789.66;6315352;20;3452564;-46
2023/12/24 03:46:58;;;;;;;;;8.50;4.50;;;;;2.35;100.00;98795.44;6333470;20;1818137;-46
2023/12/24 03:49:25;;;;;;;;;3.00;3.00;;;;;2.53;100.00;98788.50;6312689;20;3458611;-50
2023/12/24 03:51:54;;;;;;;;;4.00;4.00;;;;;2.40;100.00;98783.72;6332683;20;1823221;-47
2023/12/24 03:54:22;;;;;;;;;2.00;2.00;;;;;2.69;100.00;98784.22;6314936;20;3454421;-47
2023/12/24 03:56:51;;;;;;;;;6.00;5.00;;;;;2.50;100.00;98772.69;6331486;20;1823272;-47
2023/12/24 03:59:18;;;;;;;;;6.00;5.00;;;;;2.60;100.00;98771.38;6314498;20;2754560;-48
2023/12/24 04:01:47;;;;;;;;;5.25;5.25;;;;;2.58;100.00;98770.56;6331650;20;1825193;-48
2023/12/24 04:04:15;;;;;;;;;13.00;11.50;;;;;2.41;100.00;98774.81;6312347;20;2500231;-47
2023/12/24 04:06:46;;;;;;;;;34.00;30.00;;;;;2.20;100.00;98775.75;6277874;20;2500315;-46
2023/12/24 04:09:15;;;;;;;;;25.33;21.33;;;;;2.27;100.00;98774.56;6280893;20;3562795;-46
2023/12/24 04:11:48;;;;;;;;;64.33;49.67;;;;;2.26;100.00;98795.81;6312178;20;2875305;-48
2023/12/24 04:14:18;;;;;;;;;40.33;36.67;;;;;2.23;100.00;98796.78;6310938;20;2863933;-48
2023/12/24 04:16:47;;;;;;;;;46.50;41.50;;;;;1.92;100.00;98792.78;6310224;20;2866961;-50
2023/12/24 04:19:15;;;;;;;;;38.00;27.00;;;;;2.17;100.00;98787.31;6276696;20;2869057;-50
2023/12/24 04:21:44;;;;;;;;;23.67;19.67;;;;;2.27;100.00;98793.09;6280760;20;3560723;-48
2023/12/24 04:24:14;;;;;;;;;21.33;14.00;;;;;2.27;100.00;98792.25;6308565;20;3555669;-48
2023/12/24 04:26:41;;;;;;;;;21.50;20.00;;;;;2.09;100.00;98789.44;6279728;20;2834735;-49
2023/12/24 04:29:09;;;;;;;;;14.00;13.00;;;;;2.42;100.00;98773.03;6282854;20;2802359;-47
2023/12/24 04:31:40;;;;;;;;;14.00;12.00;;;;;2.18;100.00;98777.59;6281679;20;2800413;-49
2023/12/24 04:34:09;;;;;;;;;27.00;21.00;;;;;2.32;100.00;98775.22;6277610;20;3581565;-46
2023/12/24 04:36:37;;;;;;;;;33.00;27.50;;;;;2.51;100.00;98775.28;6275447;20;2500407;-51
2023/12/24 04:39:05;;;;;;;;;17.00;14.33;;;;;2.30;100.00;98771.78;6280425;20;3558617;-46
2023/12/24 04:41:34;;;;;;;;;14.00;9.75;;;;;2.25;100.00;98765.81;6331408;20;1823310;-45
2023/12/24 04:44:04;;;;;;;;;10.00;10.00;;;;;2.39;100.00;98781.97;6311365;20;2801423;-45
2023/12/24 04:46:38;;;;;;;;;15.50;10.00;;;;;2.42;100.00;98773.91;6279478;20;2791981;-44
2023/12/24 04:49:06;;;;;;;;;19.50;12.50;;;;;2.48;100.00;98769.28;6277409;20;2809189;-45
2023/12/24 04:51:35;;;;;;;;;8.00;8.00;;;;;2.22;100.00;98767.75;6284105;20;3432705;-47
2023/12/24 04:54:04;;;;;;;;;8.00;8.00;;;;;2.25;100.00;98768.47;6311743;20;2748235;-44
2023/12/24 04:56:32;;;;;;;;;12.00;8.00;;;;;2.36;100.00;98765.34;6311462;20;2754469;-45
2023/12/24 04:59:00;;;;;;;;;9.50;8.00;;;;;2.22;100.00;98773.03;6328884;20;1820600;-44
2023/12/24 05:01:30;;;;;;;;;8.75;5.75;;;;;2.31;100.00;98767.34;6332132;20;1828493;-43
2023/12/24 05:03:58;;;;;;;;;6.00;5.00;;;;;2.53;100.00;98759.34;6313178;20;2752377;-44
2023/12/24 05:06:30;;;;;;;;;8.00;8.00;;;;;2.42;100.00;98760.66;6328931;20;1821276;-45
2023/12/24 05:08:58;;;;;;;;;7.50;7.50;;;;;2.69;100.00;98756.88;6332328;20;1819112;-46
2023/12/24 05:11:26;;;;;;;;;9.00;6.00;;;;;2.49;100.00;98760.41;6312864;20;2742054;-45
2023/12/24 05:13:54;;;;;;;;;13.50;8.00;;;;;2.58;100.00;98760.88;6279534;20;2764928;-44
2023/12/24 05:16:22;;;;;;;;;11.50;5.00;;;;;2.57;100.00;98750.31;6277750;20;2767984;-45
2023/12/24 05:18:49;;;;;;;;;12.00;8.00;;;;;2.46;100.00;98760.53;6278323;20;2759710;-45
2023/12/24 05:21:17;;;;;;;;;12.00;12.00;;;;;2.81;100.00;98759.81;6280039;20;2789892;-43
2023/12/24 05:23:47;;;;;;;;;16.80;11.80;;;;;2.46;100.00;98755.22;6309399;20;2800310;-45
2023/12/24 05:26:15;;;;;;;;;16.00;16.00;;;;;2.54;100.00;98756.59;6281039;20;2804486;-44
2023/12/24 05:28:44;;;;;;;;;27.00;25.00;;;;;2.53;100.00;98762.84;6281097;20;2850275;-45
2023/12/24 05:31:13;;;;;;;;;42.00;39.00;;;;;2.36;100.00;98766.22;6279318;20;2878687;-45
2023/12/24 05:33:41;;;;;;;;;18.50;14.00;;;;;2.55;100.00;98770.72;6313931;20;2811732;-45
2023/12/24 05:36:14;;;;;;;;;27.00;21.00;;;;;2.44;100.00;98757.94;6276723;20;3573193;-46
2023/12/24 05:38:42;;;;;;;;;23.00;20.00;;;;;2.41;100.00;98764.22;6305679;20;2494055;-45
2023/12/24 05:41:15;;;;;;;;;32.00;26.50;;;;;2.14;100.00;98768.06;6277955;20;2852331;-44
2023/12/24 05:43:42;;;;;;;;;23.50;21.00;;;;;2.41;100.00;98769.53;6281405;20;2831526;-44
2023/12/24 05:46:15;;;;;;;;;40.50;29.25;;;;;2.80;100.00;98775.81;6275461;20;3614850;-44
2023/12/24 05:48:43;;;;;;;;;20.00;18.00;;;;;2.60;100.00;98768.72;6309683;20;2825297;-44
2023/12/24 05:51:15;;;;;;;;;16.00;13.00;;;;;2.53;100.00;98768.16;6325481;20;1817056;-45
2023/12/24 05:53:44;;;;;;;;;13.67;11.67;;;;;2.66;100.00;98773.78;6311434;20;2786746;-46
2023/12/24 05:56:11;;;;;;;;;18.00;10.00;;;;;2.85;100.00;98781.75;6316415;20;2780512;-44
2023/12/24 05:58:39;;;;;;;;;13.00;12.00;;;;;2.64;100.00;98779.13;6282995;20;2775248;-44
2023/12/24 06:01:08;;;;;;;;;18.50;11.00;;;;;2.58;100.00;98776.75;6298262;20;1820195;-45
2023/12/24 06:03:36;;;;;;;;;14.00;12.50;;;;;2.84;100.00;98782.69;6314161;20;2779461;-45
2023/12/24 06:06:04;;;;;;;;;16.00;12.00;;;;;2.77;100.00;98786.56;6282160;20;2783624;-47
2023/12/24 06:08:35;;;;;;;;;10.17;9.17;;;;;2.76;100.00;98783.00;6328130;20;1808159;-44
2023/12/24 06:11:03;;;;;;;;;21.50;13.50;;;;;2.65;100.00;98777.34;6282825;20;2794066;-44
2023/12/24 06:13:33;;;;;;;;;19.60;13.80;;;;;2.74;100.00;98784.91;6306468;20;2799335;-44
2023/12/24 06:16:02;;;;;;;;;14.00;13.40;;;;;3.04;100.00;98795.03;6308924;20;2790930;-45
2023/12/24 06:18:30;;;;;;;;;16.50;13.50;;;;;3.02;100.00;98786.28;6283261;20;2790975;-44
2023/12/24 06:20:58;;;;;;;;;13.00;13.00;;;;;2.83;100.00;98781.81;6285830;20;2794049;-45
2023/12/24 06:23:26;;;;;;;;;15.00;11.00;;;;;2.83;100.00;98781.81;6284424;20;2779464;-44
2023/12/24 06:25:55;;;;;;;;;21.67;13.00;;;;;3.00;100.00;98777.53;6281172;20;2819180;-44
2023/12/24 06:28:23;;;;;;;;;17.67;14.33;;;;;2.98;100.00;98774.97;6311069;20;3521234;-46
2023/12/24 06:30:54;;;;;;;;;120.33;110.67;;;;;2.88;100.00;98775.47;6313195;20;3699316;-43
2023/12/24 06:33:23;;;;;;;;;32.50;29.50;;;;;2.83;100.00;98781.81;6281031;20;2846242;-45
2023/12/24 06:35:51;;;;;;;;;13.50;9.50;;;;;3.30;100.00;98775.28;6280083;20;2767037;-45
2023/12/24 06:38:21;;;;;;;;;11.33;8.00;;;;;3.54;100.00;98783.88;6323001;20;1804504;-44
2023/12/24 06:40:49;;;;;;;;;8.33;6.33;;;;;3.79;100.00;98788.00;6286026;20;3462796;-45
2023/12/24 06:43:32;;;;;;;;;14.50;10.00;;;;;3.88;100.00;98788.44;6282423;20;2794098;-44
2023/12/24 06:45:59;;;;;;;;;24.50;18.50;;;;;4.02;100.00;98785.09;6285864;20;2850252;-45
2023/12/24 06:48:27;;;;;;;;;26.00;16.00;;;;;4.00;100.00;98791.41;6284194;20;2860755;-45
2023/12/24 06:50:56;;;;;;;;;8.00;7.00;;;;;3.99;100.00;98800.31;6302659;20;1810715;-46
2023/12/24 06:53:25;;;;;;;;;10.00;7.00;;;;;3.98;100.00;98796.81;6312761;20;2750423;-44
2023/12/24 06:55:52;;;;;;;;;13.00;13.00;;;;;3.73;100.00;98795.31;6301170;20;2796124;-44
2023/12/24 06:58:21;;;;;;;;;9.75;7.00;;;;;3.79;100.00;98803.94;6305028;20;1812769;-46
2023/12/24 07:00:49;;;;;;;;;10.50;10.00;;;;;3.64;100.00;98795.78;6309358;20;2785848;-47
2023/12/24 07:03:20;;;;;;;;;10.60;8.60;;;;;3.57;100.00;98794.34;6325114;20;2514883;-44
2023/12/24 07:05:49;;;;;;;;;9.50;9.50;;;;;3.56;100.00;98800.59;6332212;20;1817089;-43
2023/12/24 07:08:18;;;;;;;;;11.50;8.75;;;;;3.64;100.00;98811.72;6330703;20;1823324;-44
2023/12/24 07:10:45;;;;;;;;;13.50;10.50;;;;;3.63;100.00;98809.13;6312964;20;2775272;-45
2023/12/24 07:13:13;;;;;;;;;6.33;6.00;;;;;3.65;100.00;98813.41;6281085;20;3456626;-44
2023/12/24 07:15:44;;;;;;;;;11.00;9.14;;;;;3.20;100.00;98811.97;6353073;20;1809648;-44
2023/12/24 07:18:14;;;;;;;;;16.60;12.20;;;;;3.20;100.00;98819.94;6337402;20;2798252;-43
2023/12/24 07:20:42;;;;;;;;;24.50;18.50;;;;;3.54;100.00;98820.19;6281511;20;2833633;-44
2023/12/24 07:23:11;;;;;;;;;27.67;22.33;;;;;3.40;100.00;98813.72;6280258;20;3580501;-44
2023/12/24 07:25:40;;;;;;;;;30.50;27.00;;;;;3.47;100.00;98822.25;6278676;20;2859763;-44
2023/12/24 07:28:07;;;;;;;;;24.00;20.00;;;;;3.60;100.00;98818.06;6281056;20;2500430;-44
2023/12/24 07:30:36;;;;;;;;;18.33;15.33;;;;;3.70;100.00;98813.22;6283116;20;3560811;-46
2023/12/24 07:33:05;;;;;;;;;18.00;15.33;;;;;3.94;100.00;98813.81;6308218;20;3545172;-46
2023/12/24 07:35:34;;;;;;;;;24.00;20.00;;;;;3.87;100.00;98804.41;6308044;20;3581549;-45
2023/12/24 07:38:02;;;;;;;;;13.00;13.00;;;;;3.89;100.00;98807.88;6280191;20;2791942;-45
2023/12/24 07:40:30;;;;;;;;;21.33;16.00;;;;;4.24;100.00;98807.91;6278190;20;3548229;-45
2023/12/24 07:42:59;;;;;;;;;41.50;32.00;;;;;4.36;100.00;98807.31;6313436;20;2866988;-44
2023/12/24 07:45:28;;;;;;;;;21.00;20.00;;;;;4.47;100.00;98804.97;6279534;20;3556548;-45
2023/12/24 07:47:57;;;;;;;;;16.67;13.00;;;;;4.30;100.00;98815.59;6283939;20;3536815;-44
2023/12/24 07:50:25;;;;;;;;;7.00;7.00;;;;;4.61;100.00;98807.78;6331153;20;1814979;-44
2023/12/24 07:52:55;;;;;;;;;6.75;4.75;;;;;5.30;100.00;98810.41;6332843;20;1821275;-44
2023/12/24 07:55:24;;;;;;;;;3.00;1.00;;;;;5.68;100.00;98808.28;6328366;20;1812874;-45
2023/12/24 07:57:52;;;;;;;;;9.00;4.00;;;;;5.70;100.00;98815.25;6332492;20;1823395;-45
2023/12/24 08:00:21;;;;;;;;;5.25;4.00;;;;;5.78;100.00;98824.63;6329675;20;1811822;-44
2023/12/24 08:02:51;;;;;;;;;6.00;3.50;;;;;5.74;100.00;98823.94;6332854;20;1806600;-49
2023/12/24 08:05:20;;;;;;;;;7.25;5.00;;;;;5.82;100.00;98823.50;6330694;20;1820177;-43
2023/12/24 08:07:48;;;;;;;;;4.00;4.00;;;;;5.84;100.00;98822.47;6315725;20;2749323;-43
2023/12/24 08:10:15;;;;;;;;;6.50;6.50;;;;;5.67;100.00;98818.09;6281739;20;2736827;-45
2023/12/24 08:12:44;;;;;;;;;5.00;5.00;;;;;5.81;100.00;98825.31;6328078;20;1825411;-46
2023/12/24 08:15:15;;;;;;;;;3.00;3.00;;;;;5.91;100.00;98839.84;6313157;20;2752359;-45
2023/12/24 08:17:42;;;;;;;;;10.50;8.00;;;;;5.89;100.00;98839.06;6285374;20;2750316;-44
2023/12/24 08:20:11;;;;;;;;;7.00;6.00;;;;;5.73;100.00;98831.06;6282039;20;2748210;-44
2023/12/24 08:22:40;;;;;;;;;7.00;6.25;;;;;5.74;100.00;98839.94;6302444;20;1822404;-46
2023/12/24 08:25:08;;;;;;;;;12.00;8.00;;;;;5.85;100.00;98847.31;6312204;20;2756528;-49
2023/12/24 08:27:38;;;;;;;;;11.33;7.33;;;;;5.86;100.00;98847.22;6324025;20;1803468;-46
2023/12/24 08:30:08;;;;;;;;;8.25;6.00;;;;;6.24;100.00;98854.03;6302689;20;1819182;-45
2023/12/24 08:32:36;;;;;;;;;3.00;3.00;;;;;6.27;100.00;98865.38;6314274;20;2723238;-47
2023/12/24 08:35:04;;;;;;;;;4.00;4.00;;;;;6.26;100.00;98855.66;6311098;20;2756529;-47
2023/12/24 08:37:35;;;;;;;;;13.67;13.67;;;;;6.27;100.00;98859.19;6312459;20;2799269;-46
2023/12/24 08:40:04;;;;;;;;;6.00;6.00;;;;;6.23;100.00;98866.50;6316623;20;2735826;-45
2023/12/24 08:42:32;;;;;;;;;12.00;12.00;;;;;5.89;100.00;98870.16;6318221;20;2780511;-44
2023/12/24 08:45:03;;;;;;;;;25.83;24.00;;;;;5.50;100.00;98882.06;6305664;20;3583651;-45
2023/12/24 08:47:31;;;;;;;;;38.00;31.50;;;;;5.47;100.00;98880.41;6281233;20;2864866;-46
2023/12/24 08:50:01;;;;;;;;;48.67;38.67;;;;;5.41;100.00;98885.22;6282757;20;2869183;-48
2023/12/24 08:52:30;;;;;;;;;58.00;47.00;;;;;5.22;100.00;98890.66;6311220;20;2835850;-46
2023/12/24 08:54:59;;;;;;;;;47.33;40.00;;;;;5.35;100.00;98897.06;6282200;20;2870132;-45
2023/12/24 08:57:28;;;;;;;;;37.50;32.50;;;;;5.74;100.00;98903.84;6312405;20;2853489;-45
2023/12/24 08:59:57;;;;;;;;;30.50;26.00;;;;;5.59;100.00;98904.69;6278507;20;2835714;-46
2023/12/24 09:02:27;;;;;;;;;43.33;30.67;;;;;5.66;100.00;98906.94;6281313;20;3633587;-49
2023/12/24 09:04:57;;;;;;;;;21.00;19.00;;;;;5.62;100.00;98907.16;6314035;20;2832618;-51
2023/12/24 09:07:26;;;;;;;;;15.20;13.40;;;;;5.40;100.00;98911.00;6305590;20;2796112;-48
2023/12/24 09:09:55;;;;;;;;;15.67;13.33;;;;;5.56;100.00;98908.38;6281686;20;3524309;-45
2023/12/24 09:12:24;;;;;;;;;18.00;14.33;;;;;5.63;100.00;98911.53;6313856;20;3544145;-46
2023/12/24 09:14:51;;;;;;;;;24.00;21.00;;;;;5.49;100.00;98920.28;6312261;20;2838960;-47
2023/12/24 09:17:20;;;;;;;;;30.50;22.00;;;;;5.59;100.00;98920.66;6280298;20;2844129;-48
2023/12/24 09:19:55;;;;;;;;;8.33;2.67;;;;;5.91;100.00;98927.75;6277936;20;3472158;-45
2023/12/24 09:22:24;;;;;;;;;24.50;23.50;;;;;5.84;100.00;98933.50;6280099;20;2850266;-49
2023/12/24 09:24:52;;;;;;;;;21.33;21.33;;;;;5.66;100.00;98922.03;6280291;20;3560743;-48
2023/12/24 09:27:20;;;;;;;;;21.50;18.00;;;;;5.80;100.00;98924.81;6317026;20;2500318;-45
2023/12/24 09:29:49;;;;;;;;;19.33;19.00;;;;;5.16;100.00;98909.59;6285975;20;3560890;-47
2023/12/24 09:32:17;;;;;;;;;22.50;18.00;;;;;5.53;100.00;98910.31;6291703;20;2829459;-50
2023/12/24 09:34:45;;;;;;;;;19.00;18.00;;;;;5.25;100.00;98909.13;6285744;20;3550278;-50
2023/12/24 09:37:14;;;;;;;;;17.33;15.67;;;;;5.39;100.00;98908.38;6317995;20;3540881;-48
2023/12/24 09:39:43;;;;;;;;;28.00;22.50;;;;;5.68;100.00;98915.66;6314307;20;2846081;-46
2023/12/24 09:42:12;;;;;;;;;19.00;19.00;;;;;5.79;100.00;98911.56;6285607;20;3554447;-45
2023/12/24 09:44:41;;;;;;;;;23.00;20.00;;;;;5.65;100.00;98912.31;6284196;20;2838903;-47
2023/12/24 09:47:10;;;;;;;;;27.50;25.50;;;;;5.52;100.00;98908.59;6285730;20;2852422;-47
2023/12/24 09:49:38;;;;;;;;;35.00;31.50;;;;;5.49;100.00;98913.16;6283098;20;2851323;-49
2023/12/24 09:52:08;;;;;;;;;37.67;27.67;;;;;5.85;100.00;98909.44;6284048;20;2877401;-47
2023/12/24 09:54:36;;;;;;;;;25.50;19.50;;;;;6.29;100.00;98902.59;6310231;20;2492447;-46
2023/12/24 09:57:07;;;;;;;;;14.40;13.60;;;;;6.63;100.00;98909.53;6308706;20;2803445;-48
2023/12/24 09:59:35;;;;;;;;;13.00;10.00;;;;;6.85;100.00;98914.50;6284204;20;2792069;-47
2023/12/24 10:02:04;;;;;;;;;10.67;10.33;;;;;6.88;100.00;98908.97;6283994;20;2779928;-47
2023/12/24 10:04:31;;;;;;;;;18.00;15.00;;;;;7.07;100.00;98914.06;6310881;20;2492048;-48
2023/12/24 10:07:00;;;;;;;;;9.00;9.00;;;;;6.90;100.00;98906.19;6303915;20;1807684;-49
2023/12/24 10:09:49;;;;;;;;;13.00;13.00;;;;;7.09;100.00;98916.66;6312864;20;2798510;-46
2023/12/24 10:12:19;;;;;;;;;14.00;11.00;;;;;7.17;100.00;98914.38;6283986;20;2792018;-45
2023/12/24 10:14:58;;;;;;;;;15.50;13.00;;;;;6.59;100.00;98908.00;6287474;20;2796124;-45
2023/12/24 10:17:32;;;;;;;;;30.00;24.33;;;;;6.25;100.00;98901.94;6284855;20;2861900;-47
2023/12/24 10:20:08;;;;;;;;;43.33;37.67;;;;;6.31;100.00;98908.72;6316207;20;3591948;-48
2023/12/24 10:22:37;;;;;;;;;29.00;26.00;;;;;6.86;100.00;98907.34;6282043;20;2843022;-45
2023/12/24 10:25:08;;;;;;;;;19.00;17.67;;;;;6.87;100.00;98901.03;6279773;20;3558603;-45
2023/12/24 10:27:36;;;;;;;;;36.50;32.50;;;;;7.10;100.00;98903.19;6281574;20;2841052;-49
2023/12/24 10:30:13;;;;;;;;;38.50;35.00;;;;;7.07;100.00;98895.38;6284790;20;2860788;-45
2023/12/24 10:32:43;;;;;;;;;30.00;28.50;;;;;6.98;100.00;98883.47;6282968;20;2850290;-44
2023/12/24 10:35:22;;;;;;;;;48.33;36.67;;;;;6.73;100.00;98880.50;6283134;20;3623200;-43
2023/12/24 10:37:52;;;;;;;;;34.00;28.50;;;;;6.82;100.00;98871.97;6303456;20;2864898;-44
2023/12/24 10:40:21;;;;;;;;;25.00;25.00;;;;;7.11;100.00;98878.25;6281368;20;2850486;-45
2023/12/24 10:42:51;;;;;;;;;34.67;31.00;;;;;6.95;100.00;98877.44;6317173;20;3587794;-46
2023/12/24 10:45:21;;;;;;;;;34.00;34.00;;;;;6.88;100.00;98878.75;6277706;20;2852381;-44
2023/12/24 10:47:54;;;;;;;;;36.00;34.00;;;;;6.94;100.00;98865.03;6284686;20;2870167;-47
2023/12/24 10:50:22;;;;;;;;;37.33;34.67;;;;;6.96;100.00;98869.34;6317073;20;3600312;-46
2023/12/24 10:52:54;;;;;;;;;18.50;18.50;;;;;7.10;100.00;98865.81;6280004;20;2824282;-46
2023/12/24 10:55:23;;;;;;;;;25.50;22.00;;;;;7.16;100.00;98869.94;6259080;20;2837841;-46
2023/12/24 10:58:41;;;;;;;;;16.00;16.00;;;;;7.20;100.00;98868.81;6279174;20;3548228;-48
2023/12/24 11:01:10;;;;;;;;;16.00;15.00;;;;;7.07;100.00;98866.03;6282005;20;2803535;-47
2023/12/24 11:03:49;;;;;;;;;21.33;17.00;;;;;7.23;100.00;98856.13;6282526;20;3558640;-48
2023/12/24 11:06:37;;;;;;;;;20.67;17.67;;;;;7.21;100.00;98857.16;6282843;20;3563930;-50
2023/12/24 11:09:29;;;;;;;;;23.00;19.50;;;;;6.95;100.00;98861.41;6284156;20;2500377;-45
2023/12/24 11:12:01;;;;;;;;;22.33;21.67;;;;;7.13;100.00;98865.63;6279966;20;3573240;-47
2023/12/24 11:14:45;;;;;;;;;23.00;20.50;;;;;7.25;100.00;98848.88;6279680;20;2832655;-48
2023/12/24 11:17:38;;;;;;;;;22.00;16.50;;;;;7.43;100.00;98846.91;6284398;20;2820101;-49